Time;durP1;ratioP1;P1;durP2;ratioP2;P2;SDS_P1;SDS_P2;PMS_P1;PMS_P2;Temp;Humidity;BMP_temperature;BMP_pressure;BME280_temperature;BME280_humidity;BME280_pressure;Samples;Min_cycle;Max_cycle;Signal;HPM_P1;HPM_P2
2022/03/24 00:02:04;;;;;;;29.27;17.77;;;;;;;8.66;39.32;95344.38;5049834;28;20653;-81
2022/03/24 00:04:29;;;;;;;21.60;16.23;;;;;;;8.81;38.91;95341.13;5061328;28;20178;-81
2022/03/24 00:06:55;;;;;;;27.20;16.40;;;;;;;8.54;39.32;95340.50;5057230;28;20493;-80
2022/03/24 00:09:20;;;;;;;19.17;13.90;;;;;;;8.59;38.55;95338.19;5053767;28;20195;-80
2022/03/24 00:11:47;;;;;;;17.20;12.50;;;;;;;8.75;38.96;95343.41;5044819;28;20187;-81
2022/03/24 00:14:14;;;;;;;21.77;13.87;;;;;;;8.74;38.46;95336.53;5056394;28;20175;-82
2022/03/24 00:16:39;;;;;;;22.10;14.47;;;;;;;8.59;39.26;95322.53;5056694;28;20434;-81
2022/03/24 00:19:05;;;;;;;25.40;15.47;;;;;;;8.63;39.29;95328.25;5019295;28;20533;-81
2022/03/24 00:21:30;;;;;;;16.80;13.57;;;;;;;8.58;39.77;95321.72;5040952;28;20242;-81
2022/03/24 00:23:55;;;;;;;15.17;11.73;;;;;;;8.57;39.09;95319.28;5063741;28;20186;-81
2022/03/24 00:26:21;;;;;;;21.10;11.53;;;;;;;8.61;38.81;95320.59;5046900;28;20183;-81
2022/03/24 00:28:47;;;;;;;18.13;12.10;;;;;;;8.67;39.51;95319.94;5053885;28;20285;-81
2022/03/24 00:31:14;;;;;;;19.97;13.80;;;;;;;9.11;38.53;95322.13;5058046;28;20414;-81
2022/03/24 00:33:42;;;;;;;18.30;12.20;;;;;;;9.39;37.50;95308.63;5035674;28;20178;-81
2022/03/24 00:36:11;;;;;;;18.50;10.67;;;;;;;8.97;38.40;95310.59;5048013;28;20485;-81
2022/03/24 00:38:38;;;;;;;21.47;12.57;;;;;;;8.86;39.23;95308.31;5046309;28;20536;-81
2022/03/24 00:41:04;;;;;;;20.77;12.23;;;;;;;8.52;39.63;95311.16;5041912;28;20444;-81
2022/03/24 00:43:30;;;;;;;23.40;13.00;;;;;;;8.32;40.30;95302.81;5051894;28;20426;-81
2022/03/24 00:45:57;;;;;;;18.33;12.07;;;;;;;8.08;41.41;95301.00;5027000;28;20415;-81
2022/03/24 00:48:24;;;;;;;17.07;11.00;;;;;;;8.51;40.11;95299.88;5042275;28;20415;-81
2022/03/24 00:50:50;;;;;;;21.97;12.50;;;;;;;8.38;40.50;95300.38;5024513;28;20525;-81
2022/03/24 00:53:16;;;;;;;25.93;13.17;;;;;;;8.49;40.03;95290.63;5053960;28;20436;-81
2022/03/24 00:55:43;;;;;;;18.53;12.90;;;;;;;8.35;41.08;95294.69;5030507;28;20509;-81
2022/03/24 00:58:10;;;;;;;14.47;12.37;;;;;;;8.03;41.60;95293.69;5029150;28;20198;-81
2022/03/24 01:00:38;;;;;;;16.30;12.00;;;;;;;8.32;40.63;95293.19;5057554;28;20494;-81
2022/03/24 01:03:10;;;;;;;18.93;15.43;;;;;;;7.69;41.95;95289.41;5031489;28;20419;-82
2022/03/24 01:05:37;;;;;;;21.90;13.77;;;;;;;8.30;40.80;95283.91;5046565;28;20868;-82
2022/03/24 01:08:08;;;;;;;24.93;14.17;;;;;;;8.20;41.29;95281.47;5051608;28;20405;-81
2022/03/24 01:10:36;;;;;;;19.13;14.67;;;;;;;8.18;41.14;95276.44;5029429;28;20524;-81
2022/03/24 01:13:01;;;;;;;23.30;15.97;;;;;;;8.15;41.14;95281.94;5074013;28;20417;-81
2022/03/24 01:15:29;;;;;;;20.63;13.97;;;;;;;8.19;41.40;95285.88;5041802;28;20436;-81
2022/03/24 01:17:58;;;;;;;20.93;14.90;;;;;;;8.31;40.95;95288.97;5036928;28;20218;-81
2022/03/24 01:20:24;;;;;;;23.93;14.80;;;;;;;7.94;42.44;95298.06;5055597;28;20432;-81
2022/03/24 01:22:49;;;;;;;23.70;16.40;;;;;;;8.19;41.23;95285.06;5061374;28;20415;-81
2022/03/24 01:25:16;;;;;;;23.03;15.23;;;;;;;8.30;41.23;95282.13;5049601;28;20247;-81
2022/03/24 01:27:43;;;;;;;27.17;17.37;;;;;;;7.98;41.59;95277.72;5034304;28;20207;-80
2022/03/24 01:30:09;;;;;;;20.90;15.70;;;;;;;7.74;42.67;95288.94;5045071;28;20435;-80
2022/03/24 01:32:36;;;;;;;27.63;15.83;;;;;;;8.30;41.69;95270.88;5039862;28;20203;-80
2022/03/24 01:35:07;;;;;;;24.40;16.47;;;;;;;8.02;41.99;95273.81;5060924;28;20429;-81
2022/03/24 01:37:35;;;;;;;28.47;17.53;;;;;;;7.87;42.79;95278.84;5058044;28;20491;-81
2022/03/24 01:40:01;;;;;;;25.93;16.60;;;;;;;8.00;41.96;95271.34;5058581;28;20437;-81
2022/03/24 01:42:26;;;;;;;21.87;16.60;;;;;;;7.53;43.55;95269.38;5036243;28;20562;-81
2022/03/24 01:44:55;;;;;;;30.53;17.47;;;;;;;7.69;43.09;95272.97;5064124;28;20425;-81
2022/03/24 01:47:21;;;;;;;28.97;17.23;;;;;;;7.90;43.09;95260.28;5063180;28;20429;-82
2022/03/24 01:49:50;;;;;;;25.97;17.70;;;;;;;7.78;43.24;95261.59;5061747;28;20793;-82
2022/03/24 01:52:18;;;;;;;29.80;19.40;;;;;;;7.69;42.32;95258.16;5043000;28;20840;-81
2022/03/24 01:54:46;;;;;;;25.20;16.97;;;;;;;7.94;42.24;95253.78;5056129;28;20502;-82
2022/03/24 01:57:14;;;;;;;24.93;15.70;;;;;;;8.04;41.07;95251.00;5065878;28;20437;-81
2022/03/24 01:59:40;;;;;;;26.23;18.40;;;;;;;7.65;42.52;95266.47;5064050;28;20526;-82
2022/03/24 02:02:08;;;;;;;25.23;17.97;;;;;;;7.61;42.88;95256.38;5043194;28;20428;-81
2022/03/24 02:04:37;;;;;;;27.97;18.57;;;;;;;7.57;42.74;95260.25;5055756;28;20436;-82
2022/03/24 02:07:05;;;;;;;27.30;15.60;;;;;;;7.68;42.33;95263.53;5056573;28;20441;-82
2022/03/24 02:09:31;;;;;;;30.67;17.40;;;;;;;8.05;41.07;95251.84;5036844;28;20441;-81
2022/03/24 02:11:57;;;;;;;23.93;17.07;;;;;;;7.73;41.27;95263.88;5045632;28;20443;-81
2022/03/24 02:14:22;;;;;;;20.63;15.07;;;;;;;7.29;43.26;95264.09;5024555;28;20437;-81
2022/03/24 02:16:49;;;;;;;27.57;18.07;;;;;;;7.36;42.86;95257.28;5042483;28;20612;-81
2022/03/24 02:19:23;;;;;;;24.13;18.20;;;;;;;7.47;43.01;95256.97;5056911;28;20210;-81
2022/03/24 02:21:53;;;;;;;26.63;18.67;;;;;;;7.48;43.42;95256.00;5029136;28;20921;-82
2022/03/24 02:24:20;;;;;;;28.77;19.53;;;;;;;7.55;43.19;95262.22;5039295;28;20432;-81
2022/03/24 02:26:47;;;;;;;27.67;18.00;;;;;;;7.51;43.64;95258.31;5038170;28;20447;-81
2022/03/24 02:29:14;;;;;;;24.30;17.40;;;;;;;7.37;43.04;95258.91;5054540;28;20929;-80
2022/03/24 02:31:46;;;;;;;23.27;18.47;;;;;;;7.42;42.92;95262.66;5068217;28;20413;-81
2022/03/24 02:37:01;;;;;;;25.93;14.50;;;;;;;7.11;44.60;95261.59;5058587;28;20477;-81
2022/03/24 02:39:28;;;;;;;23.10;16.37;;;;;;;7.24;44.34;95262.78;5050434;28;20465;-81
2022/03/24 02:41:55;;;;;;;22.30;15.40;;;;;;;7.36;44.07;95247.69;5057910;28;20444;-81
2022/03/24 02:44:26;;;;;;;23.70;15.27;;;;;;;7.23;44.45;95248.13;5049292;28;20505;-81
2022/03/24 02:46:54;;;;;;;26.10;16.27;;;;;;;7.47;43.80;95249.16;5038305;28;20442;-81
2022/03/24 02:49:23;;;;;;;25.50;15.83;;;;;;;7.32;43.99;95241.19;5056407;28;20421;-81
2022/03/24 02:51:52;;;;;;;25.70;15.70;;;;;;;7.31;43.76;95243.94;5055591;28;20576;-81
2022/03/24 02:54:18;;;;;;;23.83;15.77;;;;;;;7.63;43.00;95244.00;5067999;28;20439;-81
2022/03/24 02:56:44;;;;;;;28.63;17.10;;;;;;;7.06;44.07;95243.88;5067862;28;20408;-81
2022/03/24 02:59:12;;;;;;;23.23;14.60;;;;;;;7.19;44.18;95241.63;5054360;28;20457;-82
2022/03/24 03:01:41;;;;;;;18.10;14.50;;;;;;;7.25;43.78;95240.19;5061219;28;20184;-81
2022/03/24 03:04:07;;;;;;;20.30;14.83;;;;;;;7.36;43.95;95231.25;5048593;28;20472;-81
2022/03/24 03:06:33;;;;;;;18.47;13.87;;;;;;;7.58;44.10;95241.03;5061402;28;20774;-81
2022/03/24 03:09:01;;;;;;;17.97;13.70;;;;;;;7.32;43.91;95230.78;5030244;28;20422;-82
2022/03/24 03:11:27;;;;;;;21.50;14.67;;;;;;;7.09;44.59;95246.13;5061558;28;20422;-82
2022/03/24 03:13:53;;;;;;;24.87;15.03;;;;;;;7.11;45.31;95245.97;5028831;28;20442;-82
2022/03/24 03:16:18;;;;;;;21.83;15.00;;;;;;;7.58;44.12;95235.84;5027448;28;20446;-82
2022/03/24 03:18:44;;;;;;;29.07;17.33;;;;;;;7.24;44.40;95235.94;5038413;28;20202;-81
2022/03/24 03:21:11;;;;;;;29.53;20.10;;;;;;;6.98;45.08;95241.22;5047605;28;20190;-82
2022/03/24 03:23:38;;;;;;;28.90;18.13;;;;;;;7.02;44.55;95250.34;5057891;28;20417;-81
2022/03/24 03:26:04;;;;;;;30.90;20.77;;;;;;;6.98;44.73;95239.44;5053449;28;20435;-81
2022/03/24 03:28:31;;;;;;;28.17;20.30;;;;;;;7.34;44.31;95244.44;5057949;28;20415;-80
2022/03/24 03:30:57;;;;;;;20.97;16.37;;;;;;;7.30;44.39;95250.09;5048946;28;20506;-80
2022/03/24 03:33:23;;;;;;;29.90;17.63;;;;;;;7.02;45.37;95248.56;5061604;28;20823;-81
2022/03/24 03:35:48;;;;;;;24.40;16.47;;;;;;;7.13;44.92;95251.84;5066558;28;20421;-82
2022/03/24 03:38:14;;;;;;;29.63;16.87;;;;;;;6.87;45.82;95251.91;5054432;28;20202;-82
2022/03/24 03:40:39;;;;;;;31.90;16.60;;;;;;;7.29;45.00;95248.50;5049146;28;20175;-82
2022/03/24 03:43:05;;;;;;;27.87;17.63;;;;;;;7.31;44.76;95251.75;5053117;28;20269;-81
2022/03/24 03:45:30;;;;;;;33.13;19.77;;;;;;;6.99;45.13;95246.25;5054793;28;20426;-82
2022/03/24 03:47:56;;;;;;;29.17;19.33;;;;;;;6.80;45.76;95247.31;5052376;28;20555;-81
2022/03/24 03:50:21;;;;;;;26.93;18.67;;;;;;;6.77;45.55;95247.66;5058290;28;20206;-81
2022/03/24 03:52:47;;;;;;;37.27;19.87;;;;;;;6.69;46.10;95249.38;5048329;28;20231;-81
2022/03/24 03:55:12;;;;;;;28.77;18.47;;;;;;;6.75;45.97;95243.56;5054925;28;20179;-81
2022/03/24 03:57:38;;;;;;;36.13;18.47;;;;;;;6.78;46.05;95243.25;5052945;28;20623;-82
2022/03/24 04:02:51;;;;;;;26.83;18.30;;;;;;;7.35;44.49;95245.25;5039487;28;20218;-82
2022/03/24 04:05:23;;;;;;;23.20;17.73;;;;;;;7.35;44.18;95242.63;5029416;28;20523;-82
2022/03/24 04:07:49;;;;;;;32.57;19.33;;;;;;;6.99;45.06;95248.06;5051203;28;20409;-82
2022/03/24 04:10:15;;;;;;;30.37;20.70;;;;;;;6.77;45.56;95247.66;5056416;28;20426;-82
2022/03/24 04:12:42;;;;;;;33.07;20.07;;;;;;;6.69;45.96;95242.41;5031217;28;20422;-82
2022/03/24 04:15:07;;;;;;;33.57;19.43;;;;;;;6.76;45.56;95242.59;5047183;28;20186;-81
2022/03/24 04:17:33;;;;;;;26.63;18.30;;;;;;;6.69;45.61;95244.19;5028745;28;20414;-82
2022/03/24 04:19:58;;;;;;;32.43;19.20;;;;;;;7.13;45.14;95242.25;5037726;28;20480;-81
2022/03/24 04:22:24;;;;;;;28.33;19.60;;;;;;;6.79;45.40;95243.09;5052671;28;20183;-82
2022/03/24 04:24:50;;;;;;;29.40;19.73;;;;;;;7.03;45.00;95238.97;5066538;28;20174;-82
2022/03/24 04:27:16;;;;;;;29.43;23.80;;;;;;;6.82;45.48;95234.16;5065926;28;20427;-82
2022/03/24 04:29:41;;;;;;;29.87;19.97;;;;;;;6.73;45.63;95235.09;5053287;28;20250;-82
2022/03/24 04:32:07;;;;;;;31.37;21.00;;;;;;;6.88;45.80;95243.13;5039801;28;20441;-82
2022/03/24 04:34:33;;;;;;;31.93;21.57;;;;;;;7.17;44.78;95238.38;5065296;28;20225;-81
2022/03/24 04:36:59;;;;;;;25.10;19.40;;;;;;;6.81;45.29;95246.38;5066036;28;20424;-81
2022/03/24 04:39:24;;;;;;;25.20;20.67;;;;;;;6.68;45.98;95251.19;5048142;28;20208;-81
2022/03/24 04:41:49;;;;;;;30.63;22.03;;;;;;;6.53;46.15;95247.53;5056523;28;20185;-81
2022/03/24 04:44:15;;;;;;;36.10;20.40;;;;;;;7.10;44.85;95242.56;5054728;28;20233;-81
2022/03/24 04:46:40;;;;;;;36.10;22.37;;;;;;;7.01;44.75;95249.53;5029284;28;20174;-82
2022/03/24 04:49:05;;;;;;;35.40;23.50;;;;;;;7.37;43.17;95248.50;5027957;28;20607;-81
2022/03/24 04:51:31;;;;;;;35.70;24.80;;;;;;;6.87;45.00;95251.91;5059453;28;20234;-81
2022/03/24 04:53:56;;;;;;;34.23;24.53;;;;;;;6.94;44.34;95250.31;5046110;28;20202;-81
2022/03/24 04:56:22;;;;;;;35.20;22.77;;;;;;;6.79;44.99;95250.91;5060196;28;20186;-81
2022/03/24 04:58:48;;;;;;;43.80;27.30;;;;;;;6.88;44.93;95256.16;5045922;28;20250;-80
2022/03/24 05:01:14;;;;;;;45.83;27.43;;;;;;;6.97;44.54;95257.81;5028321;28;20179;-81
2022/03/24 05:03:46;;;;;;;42.13;26.77;;;;;;;7.07;44.05;95261.09;5046565;28;20433;-81
2022/03/24 05:06:11;;;;;;;40.33;26.20;;;;;;;7.21;44.33;95255.28;5063122;28;20248;-81
2022/03/24 05:08:37;;;;;;;33.63;23.20;;;;;;;6.80;44.50;95260.31;5049321;28;20438;-81
2022/03/24 05:11:02;;;;;;;37.33;24.50;;;;;;;7.16;43.31;95254.13;5050094;28;20160;-81
2022/03/24 05:13:28;;;;;;;37.27;25.20;;;;;;;7.30;43.75;95255.31;5063936;28;20175;-80
2022/03/24 05:15:56;;;;;;;38.87;26.50;;;;;;;7.78;42.28;95251.19;5052799;28;20172;-80
2022/03/24 05:18:24;;;;;;;32.37;24.93;;;;;;;7.40;43.20;95249.00;5050798;28;20198;-81
2022/03/24 05:20:50;;;;;;;37.40;26.77;;;;;;;7.69;42.98;95262.56;5049933;28;20429;-81
2022/03/24 05:23:15;;;;;;;37.97;23.80;;;;;;;7.57;43.03;95255.06;5035768;28;20455;-81
2022/03/24 05:25:41;;;;;;;33.77;26.37;;;;;;;7.74;43.16;95247.25;5059314;28;20425;-81
2022/03/24 05:28:07;;;;;;;37.57;25.17;;;;;;;7.77;42.21;95254.75;5049448;28;20392;-82
2022/03/24 05:30:33;;;;;;;33.50;24.53;;;;;;;7.84;42.38;95260.13;5050295;28;20214;-81
2022/03/24 05:32:59;;;;;;;27.87;21.40;;;;;;;7.94;42.17;95245.97;5067451;28;20414;-83
2022/03/24 05:35:24;;;;;;;32.23;21.80;;;;;;;7.99;41.47;95248.91;5070126;28;20174;-81
2022/03/24 05:37:50;;;;;;;32.23;22.73;;;;;;;8.20;41.24;95255.41;5069446;28;20177;-81
2022/03/24 05:40:15;;;;;;;33.63;22.60;;;;;;;8.32;41.09;95254.09;5070005;28;20171;-81
2022/03/24 05:42:41;;;;;;;26.60;19.90;;;;;;;8.47;40.81;95243.81;5070152;28;20185;-81
2022/03/24 05:45:06;;;;;;;33.47;19.97;;;;;;;7.95;41.34;95252.00;5055503;28;20237;-82
2022/03/24 05:47:32;;;;;;;22.90;17.87;;;;;;;8.17;40.64;95245.31;5060213;28;20203;-82
2022/03/24 05:49:58;;;;;;;27.63;19.03;;;;;;;8.55;40.48;95245.59;5052621;28;20561;-80
2022/03/24 05:52:23;;;;;;;25.23;18.83;;;;;;;8.21;40.46;95249.19;5056672;28;20226;-81
2022/03/24 05:54:49;;;;;;;22.20;17.20;;;;;;;8.40;40.40;95250.66;5063333;28;20175;-81
2022/03/24 05:57:14;;;;;;;26.87;20.10;;;;;;;8.78;39.66;95236.09;5056661;28;20178;-81
2022/03/24 05:59:39;;;;;;;22.67;19.40;;;;;;;8.98;39.70;95241.72;5058315;28;20210;-81
2022/03/24 06:02:05;;;;;;;22.70;18.47;;;;;;;9.28;38.54;95241.91;5058358;28;20186;-82
2022/03/24 06:04:31;;;;;;;25.20;19.40;;;;;;;9.22;38.90;95233.94;5030391;28;20182;-81
2022/03/24 06:06:58;;;;;;;31.17;20.53;;;;;;;9.40;38.90;95242.34;5048411;28;20618;-80
2022/03/24 06:09:24;;;;;;;38.57;25.27;;;;;;;8.39;40.79;95247.22;5030255;28;20429;-81
2022/03/24 06:11:52;;;;;;;38.20;22.47;;;;;;;9.11;38.96;95254.22;5063181;28;20537;-80
2022/03/24 06:14:17;;;;;;;43.07;23.50;;;;;;;8.86;40.25;95245.69;5056016;28;20433;-80
2022/03/24 06:16:43;;;;;;;60.93;24.77;;;;;;;8.86;39.29;95239.63;5046413;28;20979;-81
2022/03/24 06:19:09;;;;;;;34.33;21.50;;;;;;;8.45;40.06;95243.19;5057855;28;20273;-80
2022/03/24 06:21:36;;;;;;;27.73;19.40;;;;;;;8.61;40.12;95244.94;5052431;28;20207;-79
2022/03/24 06:24:03;;;;;;;31.83;21.50;;;;;;;9.32;38.17;95235.34;5048580;28;20438;-81
2022/03/24 06:26:29;;;;;;;31.13;20.93;;;;;;;9.34;38.56;95237.81;5053575;28;20437;-81
2022/03/24 06:28:54;;;;;;;30.47;21.10;;;;;;;9.41;38.11;95232.69;5070881;28;20472;-80
2022/03/24 06:31:20;;;;;;;34.87;22.10;;;;;;;9.75;38.12;95235.75;5055646;28;20604;-81
2022/03/24 06:33:46;;;;;;;32.97;21.20;;;;;;;10.06;37.82;95232.25;5063126;28;20191;-81
2022/03/24 06:36:11;;;;;;;36.23;21.37;;;;;;;9.54;37.91;95228.53;5047104;28;20159;-80
2022/03/24 06:38:37;;;;;;;31.27;20.40;;;;;;;10.18;36.81;95231.81;5057168;28;20656;-81
2022/03/24 06:41:05;;;;;;;28.30;21.20;;;;;;;10.48;36.22;95236.13;5065511;28;20201;-80
2022/03/24 06:43:31;;;;;;;26.10;20.60;;;;;;;9.69;38.01;95236.44;5050168;28;20181;-81
2022/03/24 06:45:57;;;;;;;36.50;24.20;;;;;;;10.27;37.35;95223.72;5047841;28;20418;-81
2022/03/24 06:48:23;;;;;;;42.40;23.63;;;;;;;10.08;37.35;95229.47;5060968;28;20447;-80
2022/03/24 06:50:49;;;;;;;42.83;25.23;;;;;;;10.55;36.38;95238.88;5061776;28;20437;-78
2022/03/24 06:53:15;;;;;;;32.97;22.97;;;;;;;10.01;36.56;95224.09;5048235;28;20255;-79
2022/03/24 06:55:41;;;;;;;43.80;26.10;;;;;;;10.44;36.65;95226.22;5044448;28;20434;-81
2022/03/24 06:58:06;;;;;;;38.27;24.57;;;;;;;10.86;36.24;95225.59;5059852;28;20454;-80
2022/03/24 07:00:32;;;;;;;35.83;24.40;;;;;;;11.44;35.19;95222.25;5052072;28;20257;-80
2022/03/24 07:02:58;;;;;;;43.70;25.67;;;;;;;11.41;34.96;95225.25;5062648;28;20183;-80
2022/03/24 07:05:24;;;;;;;32.37;22.90;;;;;;;11.47;35.03;95219.25;5050576;28;20248;-81
2022/03/24 07:07:50;;;;;;;30.17;20.50;;;;;;;11.80;34.07;95214.38;5058865;28;20413;-81
2022/03/24 07:10:17;;;;;;;28.13;19.60;;;;;;;11.77;34.73;95212.09;5058734;28;20749;-82
2022/03/24 07:12:43;;;;;;;39.53;22.60;;;;;;;11.97;34.30;95209.72;5067736;28;20193;-82
2022/03/24 07:15:11;;;;;;;34.57;22.40;;;;;;;12.28;34.20;95213.78;5045546;28;20438;-81
2022/03/24 07:17:37;;;;;;;38.63;27.10;;;;;;;12.10;34.13;95216.84;5065668;28;20477;-81
2022/03/24 07:20:04;;;;;;;53.17;32.83;;;;;;;12.62;33.48;95220.88;5053199;28;20450;-80
2022/03/24 07:22:37;;;;;;;34.00;22.90;;;;;;;12.41;33.21;95215.69;5047922;28;20170;-79
2022/03/24 07:25:09;;;;;;;27.63;18.27;;;;;;;11.73;34.37;95216.09;5062360;28;20452;-79
2022/03/24 07:27:35;;;;;;;24.70;18.20;;;;;;;12.14;33.93;95214.66;5065684;28;20921;-78
2022/03/24 07:30:03;;;;;;;35.77;20.47;;;;;;;12.57;33.47;95215.38;5053426;28;20464;-80
2022/03/24 07:32:29;;;;;;;26.30;16.70;;;;;;;11.93;33.89;95220.75;5028020;28;20500;-80
2022/03/24 07:34:55;;;;;;;24.27;18.97;;;;;;;12.06;34.01;95218.25;5055989;28;20429;-79
2022/03/24 07:37:20;;;;;;;34.10;21.00;;;;;;;12.10;33.70;95214.22;5049200;28;20172;-80
2022/03/24 07:39:46;;;;;;;26.67;20.33;;;;;;;12.69;32.60;95219.13;5047368;28;20199;-79
2022/03/24 07:42:15;;;;;;;36.13;21.20;;;;;;;12.52;33.17;95225.66;5047038;28;20172;-80
2022/03/24 07:44:41;;;;;;;27.80;21.50;;;;;;;12.40;33.91;95214.06;5061082;28;20238;-80
2022/03/24 07:47:07;;;;;;;28.70;20.27;;;;;;;12.74;32.52;95213.28;5059277;28;20414;-81
2022/03/24 07:49:32;;;;;;;30.67;22.03;;;;;;;12.77;32.99;95219.97;5034789;28;20414;-82
2022/03/24 07:51:58;;;;;;;33.97;22.23;;;;;;;13.69;31.46;95202.13;5054425;28;20488;-80
2022/03/24 07:54:41;;;;;;;27.90;22.53;;;;;;;13.08;32.00;95209.81;5050827;28;20176;-80
2022/03/24 07:57:07;;;;;;;35.33;20.93;;;;;;;12.89;33.05;95213.94;5054745;28;20255;-80
2022/03/24 07:59:34;;;;;;;27.83;20.00;;;;;;;13.46;31.23;95209.34;5063624;28;20500;-79
2022/03/24 08:02:00;;;;;;;32.97;21.77;;;;;;;14.25;31.08;95213.13;5055708;28;20259;-79
2022/03/24 08:04:25;;;;;;;32.60;23.17;;;;;;;14.20;30.87;95206.84;5052998;28;20421;-79
2022/03/24 08:06:50;;;;;;;33.53;22.17;;;;;;;14.43;30.97;95206.41;5060356;28;20269;-80
2022/03/24 08:09:16;;;;;;;37.30;23.60;;;;;;;14.68;30.01;95206.63;5043786;28;20187;-80
2022/03/24 08:11:42;;;;;;;27.67;21.27;;;;;;;14.27;30.31;95201.59;5039621;28;20167;-80
2022/03/24 08:14:07;;;;;;;37.63;21.60;;;;;;;14.79;30.43;95202.53;5058187;28;20182;-80
2022/03/24 08:16:33;;;;;;;24.27;19.70;;;;;;;15.15;29.21;95202.03;5057322;28;20221;-80
2022/03/24 08:18:58;;;;;;;31.87;20.97;;;;;;;14.59;30.25;95203.41;5052409;28;20207;-81
2022/03/24 08:21:24;;;;;;;28.53;19.30;;;;;;;15.73;28.71;95197.69;5041224;28;20210;-80
2022/03/24 08:23:49;;;;;;;25.23;18.67;;;;;;;16.27;28.27;95187.59;5052295;28;20716;-80
2022/03/24 08:26:15;;;;;;;26.07;18.20;;;;;;;16.05;27.81;95185.31;5064401;28;20175;-80
2022/03/24 08:28:40;;;;;;;30.47;18.27;;;;;;;15.70;28.45;95185.72;5047105;28;20163;-81
2022/03/24 08:31:06;;;;;;;31.37;15.93;;;;;;;16.32;27.71;95179.81;5045557;28;20274;-80
2022/03/24 08:33:31;;;;;;;22.37;16.30;;;;;;;16.36;28.15;95183.66;5049956;28;20180;-80
2022/03/24 08:35:57;;;;;;;21.37;13.17;;;;;;;16.06;27.95;95176.38;5062693;28;20250;-80
2022/03/24 08:38:23;;;;;;;23.77;13.00;;;;;;;16.94;27.03;95172.72;5048705;28;21007;-81
2022/03/24 08:40:48;;;;;;;14.27;9.20;;;;;;;16.47;27.33;95172.38;5059601;28;20187;-80
2022/03/24 08:43:14;;;;;;;24.77;12.17;;;;;;;16.59;27.59;95181.19;5033518;28;20671;-80
2022/03/24 08:45:40;;;;;;;13.57;8.73;;;;;;;16.77;27.38;95176.97;5041664;28;20231;-80
2022/03/24 08:48:06;;;;;;;25.17;8.50;;;;;;;16.37;27.13;95166.75;5048015;28;20182;-80
2022/03/24 08:50:35;;;;;;;15.20;8.70;;;;;;;16.79;27.24;95169.63;5057345;28;20182;-81
2022/03/24 08:53:03;;;;;;;19.73;4.23;;;;;;;16.46;26.43;95154.88;5065434;28;20452;-80
2022/03/24 08:55:29;;;;;;;12.60;8.27;;;;;;;17.17;26.10;95166.75;5066267;28;20427;-81
2022/03/24 08:57:55;;;;;;;16.40;9.43;;;;;;;17.13;25.89;95160.31;5051201;28;20472;-82
2022/03/24 09:00:23;;;;;;;21.47;10.53;;;;;;;17.82;25.08;95161.81;5061196;28;20434;-81
2022/03/24 09:02:50;;;;;;;13.43;8.30;;;;;;;17.43;24.05;95154.19;5055472;28;20421;-80
2022/03/24 09:05:16;;;;;;;12.87;7.37;;;;;;;17.16;24.17;95162.47;5059979;28;20490;-80
2022/03/24 09:07:42;;;;;;;7.23;6.50;;;;;;;17.12;23.89;95153.38;5044375;28;20424;-81
2022/03/24 09:10:10;;;;;;;11.87;7.10;;;;;;;17.64;23.58;95142.34;5051551;28;20495;-81
2022/03/24 09:12:40;;;;;;;10.23;7.50;;;;;;;17.96;22.92;95152.66;5055941;28;20417;-81
2022/03/24 09:15:09;;;;;;;6.07;5.17;;;;;;;17.65;23.18;95141.28;5054562;28;20500;-81
2022/03/24 09:17:37;;;;;;;10.70;7.63;;;;;;;17.73;22.88;95143.59;5046797;28;20492;-81
2022/03/24 09:20:07;;;;;;;7.80;7.00;;;;;;;17.67;22.84;95151.66;5047166;28;20469;-81
2022/03/24 09:22:33;;;;;;;8.13;6.47;;;;;;;17.63;22.89;95143.34;5051053;28;20410;-81
2022/03/24 09:24:58;;;;;;;12.23;8.50;;;;;;;18.06;22.77;95146.78;5037632;28;20469;-80
2022/03/24 09:27:24;;;;;;;12.30;7.80;;;;;;;18.05;22.35;95150.50;5059541;28;20190;-81
2022/03/24 09:29:50;;;;;;;8.40;6.60;;;;;;;17.90;22.48;95138.50;5059147;28;20195;-80
2022/03/24 09:32:16;;;;;;;9.40;5.40;;;;;;;18.00;22.54;95135.28;5059036;28;20186;-80
2022/03/24 09:34:42;;;;;;;8.60;7.70;;;;;;;18.42;21.77;95140.50;5050403;28;20627;-80
2022/03/24 09:37:08;;;;;;;11.23;6.57;;;;;;;18.40;21.25;95131.16;5052767;28;20430;-82
2022/03/24 09:39:34;;;;;;;16.33;7.10;;;;;;;18.40;21.56;95125.84;5041720;28;20663;-81
2022/03/24 09:42:01;;;;;;;13.10;9.00;;;;;;;19.72;20.72;95126.91;5047009;28;20420;-80
2022/03/24 09:44:28;;;;;;;12.80;8.03;;;;;;;19.09;19.98;95123.34;5046706;28;20510;-81
2022/03/24 09:46:54;;;;;;;9.63;7.50;;;;;;;18.76;20.71;95124.78;5047999;28;20421;-81
2022/03/24 09:49:19;;;;;;;11.63;7.93;;;;;;;19.02;20.59;95120.03;5046776;28;20483;-80
2022/03/24 09:51:45;;;;;;;9.23;7.40;;;;;;;19.12;20.43;95106.94;5058071;28;20225;-81
2022/03/24 09:54:11;;;;;;;16.03;8.27;;;;;;;20.00;19.58;95114.63;5031260;28;20175;-79
2022/03/24 09:56:38;;;;;;;14.47;6.20;;;;;;;19.64;20.00;95114.00;5057027;28;20190;-81
2022/03/24 09:59:05;;;;;;;10.70;6.80;;;;;;;20.06;19.51;95100.38;5053775;28;20491;-81
2022/03/24 10:01:31;;;;;;;9.73;8.67;;;;;;;20.01;19.53;95092.31;5066362;28;20425;-80
2022/03/24 10:04:16;;;;;;;9.90;7.47;;;;;;;20.57;19.23;95095.00;5057697;28;20451;-80
2022/03/24 10:06:59;;;;;;;9.70;8.43;;;;;;;20.91;18.63;95071.75;5047321;28;20197;-79
2022/03/24 10:09:58;;;;;;;9.40;7.00;;;;;;;21.20;18.02;95090.97;5040479;28;20533;-80
2022/03/24 10:12:38;;;;;;;7.50;6.07;;;;;;;20.77;17.65;95097.13;5030900;28;20442;-79
2022/03/24 10:15:08;;;;;;;7.30;6.50;;;;;;;20.67;17.71;95072.00;5048297;28;20470;-79
2022/03/24 10:17:34;;;;;;;8.97;7.37;;;;;;;19.95;18.49;95087.97;5050033;28;20770;-80
2022/03/24 10:20:05;;;;;;;7.70;7.10;;;;;;;20.46;17.76;95088.72;5030505;28;20465;-80
2022/03/24 10:22:32;;;;;;;9.53;6.47;;;;;;;21.09;17.06;95075.94;5061500;28;20455;-79
2022/03/24 10:24:58;;;;;;;6.70;6.10;;;;;;;20.14;17.71;95075.25;5045827;28;20485;-80
2022/03/24 10:27:28;;;;;;;8.70;7.70;;;;;;;21.31;17.19;95061.81;5050605;28;20859;-80
2022/03/24 10:29:56;;;;;;;7.73;6.37;;;;;;;20.84;17.60;95073.81;5045276;28;20469;-79
2022/03/24 10:32:27;;;;;;;8.83;7.00;;;;;;;20.58;17.61;95072.66;5061934;28;20425;-80
2022/03/24 10:34:57;;;;;;;7.23;6.50;;;;;;;21.45;16.98;95063.03;5033757;28;20434;-80
2022/03/24 10:37:25;;;;;;;7.33;6.47;;;;;;;21.21;17.39;95055.31;5050254;28;20441;-80
2022/03/24 10:40:13;;;;;;;8.00;6.90;;;;;;;20.88;17.61;95047.50;5049461;28;20476;-80
2022/03/24 10:42:43;;;;;;;7.03;6.37;;;;;;;20.98;17.56;95047.59;5060833;28;20426;-81
2022/03/24 10:45:17;;;;;;;8.40;6.03;;;;;;;20.95;17.77;95032.16;5046512;28;20434;-80
2022/03/24 10:48:02;;;;;;;10.97;7.03;;;;;;;21.09;17.86;95044.00;5056841;28;20413;-80
2022/03/24 10:50:40;;;;;;;6.73;6.13;;;;;;;21.03;17.76;95034.38;5064127;28;20436;-80
2022/03/24 10:53:10;;;;;;;8.87;6.70;;;;;;;21.48;17.42;95035.91;5045190;28;20461;-80
2022/03/24 10:55:35;;;;;;;8.20;6.43;;;;;;;21.76;16.80;95028.66;5059993;28;20455;-81
2022/03/24 10:58:03;;;;;;;9.57;5.70;;;;;;;21.32;17.09;95024.25;5045971;28;20427;-79
2022/03/24 11:00:29;;;;;;;11.00;7.80;;;;;;;21.75;16.61;95019.06;5046847;28;20194;-80
2022/03/24 11:02:55;;;;;;;11.20;7.37;;;;;;;21.78;17.05;95034.56;5046206;28;20420;-80
2022/03/24 11:05:21;;;;;;;7.83;7.00;;;;;;;22.25;16.25;95033.81;5038206;28;20429;-81
2022/03/24 11:07:54;;;;;;;11.63;8.53;;;;;;;22.57;16.38;95014.22;5034032;28;20437;-80
2022/03/24 11:10:22;;;;;;;19.30;8.80;;;;;;;22.28;16.94;95025.31;5055782;28;20171;-80
2022/03/24 11:12:50;;;;;;;11.53;10.33;;;;;;;21.69;17.31;95020.09;5067130;28;20943;-80
2022/03/24 11:15:16;;;;;;;17.60;10.77;;;;;;;22.40;16.78;95015.25;5057738;28;20437;-80
2022/03/24 11:17:42;;;;;;;17.13;11.23;;;;;;;22.58;16.55;95011.31;5043191;28;20452;-80
2022/03/24 11:20:21;;;;;;;11.53;9.80;;;;;;;22.46;16.41;95002.72;5057961;28;20462;-80
2022/03/24 11:22:59;;;;;;;20.63;8.60;;;;;;;22.38;16.66;95003.22;5061939;28;20185;-80
2022/03/24 11:25:26;;;;;;;10.53;6.97;;;;;;;21.42;17.20;94989.75;5066668;28;20449;-80
2022/03/24 11:27:56;;;;;;;9.03;7.30;;;;;;;21.11;17.49;94999.31;5066942;28;20432;-80
2022/03/24 11:30:23;;;;;;;19.43;8.83;;;;;;;22.11;17.01;94997.97;5067003;28;20452;-81